Список аэропортов
Фактическая погода:

15:00
Температура: -12°C
Ветер: юго-восточный 3 м/с
Видимость: 10 км
Давление: 763 мм рт. ст.
1016.8 гПа (-1.8)

Облачность: 7-8/0
перистые
выше 2,5 км
Время (МСК)Темп. СВетерВлажностьДавлениеОблачностьОсадки
21:00+24Штиль 65%1015 гПаясно
22:00+22СЗ, 1 м/с71%1015 гПаясно
23:00+21СЗ, 1 м/с77%1015 гПаясно
25 июня
00:00+20СЗ, 1 м/с81%1015 гПаясно
01:00+20СЗ, 1 м/с84%1015 гПаясно
02:00+19СЗ, 1 м/с88%1016 гПаясно
03:00+18СЗ, 1 м/с91%1016 гПаясно
04:00+18С, 1 м/с92%1016 гПаясно
05:00+19СЗ, 1 м/с87%1017 гПаясно
06:00+22Штиль 76%1017 гПамалооблачно
07:00+25Штиль 62%1017 гПаясно
08:00+28ЮВ, 1 м/с50%1017 гПаясно
09:00+31ЮВ, 1 м/с39%1017 гПаясно
10:00+32ЮВ, 1 м/с32%1017 гПаясно
11:00+33ЮВ, 1 м/с30%1016 гПаясно
12:00+33ЮВ, 1 м/с29%1016 гПаясно
13:00+34ЮВ, 1 м/с27%1016 гПаясно
14:00+34Штиль 26%1016 гПамалооблачно
15:00+34Штиль 25%1016 гПаясно
16:00+34Штиль 25%1015 гПас прояснениями
17:00+34ЮЗ, 1 м/с25%1015 гПаоблачно
18:00+34З, 1 м/с27%1015 гПамалооблачно
19:00+32З, 1 м/с30%1015 гПас прояснениями
20:00+29З, 2 м/с44%1015 гПас прояснениями
21:00+27З, 2 м/с54%1015 гПаоблачно
22:00+25З, 2 м/с63%1016 гПаоблачно
23:00+23ЮЗ, 1 м/с76%1016 гПамалооблачно
26 июня
00:00+22З, 1 м/с84%1016 гПас прояснениями
01:00+21З, 2 м/с86%1016 гПас прояснениями
02:00+20З, 2 м/с87%1016 гПаясно
03:00+19ЮЗ, 2 м/с89%1016 гПаясно
04:00+19ЮЗ, 1 м/с90%1016 гПаясно
05:00+20З, 1 м/с86%1017 гПаясно
06:00+23З, 1 м/с74%1017 гПамалооблачно
07:00+27З, 1 м/с55%1016 гПаоблачно
08:00+31З, 2 м/с40%1016 гПамалооблачно
09:00+34СЗ, 3 м/с28%1016 гПамалооблачно
10:00+34СЗ, 3 м/с27%1016 гПамалооблачно
11:00+35СЗ, 3 м/с26%1015 гПамалооблачно
12:00+35СЗ, 3 м/с25%1015 гПас прояснениями
13:00+35С, 2 м/с27%1015 гПас прояснениями
14:00+34СЗ, 5 м/с34%1015 гПамалооблачно
15:00+35СЗ, 3 м/с30%1015 гПамалооблачно
16:00+34СЗ, 4 м/с31%1015 гПамалооблачно
17:00+34СЗ, 4 м/с31%1015 гПаясно
18:00+32СЗ, 4 м/с34%1015 гПаясно
19:00+31СЗ, 3 м/с39%1015 гПамалооблачно
20:00+28СЗ, 2 м/с48%1015 гПаясно
21:00+26СЗ, 2 м/с58%1015 гПамалооблачно